createdAt,value
2018-05-06T00:01:04.272Z,14.35
2018-05-06T00:03:31.784Z,14.43
2018-05-06T00:05:59.302Z,14.21
2018-05-06T00:08:26.785Z,14.32
2018-05-06T00:10:54.319Z,14.44
2018-05-06T00:13:21.797Z,14.27
2018-05-06T00:15:49.309Z,14.16
2018-05-06T00:18:16.784Z,14.24
2018-05-06T00:20:44.298Z,14.28
2018-05-06T00:23:11.772Z,14.43
2018-05-06T00:25:39.296Z,14.27
2018-05-06T00:28:06.797Z,14.20
2018-05-06T00:30:34.301Z,14.32
2018-05-06T00:33:01.785Z,14.30
2018-05-06T00:35:29.309Z,14.48
2018-05-06T00:37:56.802Z,14.68
2018-05-06T00:40:24.325Z,14.67
2018-05-06T00:42:51.829Z,14.74
2018-05-06T00:45:19.323Z,14.80
2018-05-06T00:47:46.845Z,15.12
2018-05-06T00:50:14.392Z,15.05
2018-05-06T00:52:41.897Z,14.57
2018-05-06T00:55:09.381Z,14.67
2018-05-06T00:57:36.889Z,14.52
2018-05-06T01:00:05.254Z,14.94
2018-05-06T01:02:32.772Z,14.84
2018-05-06T01:05:00.545Z,14.94
2018-05-06T01:07:28.049Z,14.95
2018-05-06T01:09:55.528Z,15.26
2018-05-06T01:12:23.033Z,15.28
2018-05-06T01:14:50.531Z,15.17
2018-05-06T01:17:18.010Z,15.04
2018-05-06T01:19:45.509Z,14.72
2018-05-06T01:22:12.989Z,14.81
2018-05-06T01:24:40.493Z,14.53
2018-05-06T01:27:07.970Z,14.26
2018-05-06T01:29:35.477Z,14.15
2018-05-06T01:32:02.965Z,14.30
2018-05-06T01:34:30.469Z,14.08
2018-05-06T01:36:57.945Z,14.14
2018-05-06T01:39:25.451Z,13.91
2018-05-06T01:41:52.945Z,14.03
2018-05-06T01:44:20.452Z,14.65
2018-05-06T01:46:47.929Z,14.70
2018-05-06T01:49:15.434Z,14.54
2018-05-06T01:51:42.917Z,14.63
2018-05-06T01:54:10.449Z,15.28
2018-05-06T01:56:37.940Z,14.80
2018-05-06T01:59:05.441Z,14.79
2018-05-06T02:01:32.917Z,14.66
2018-05-06T02:04:00.537Z,14.54
2018-05-06T02:06:28.089Z,14.71
2018-05-06T02:08:55.593Z,14.24
2018-05-06T02:11:23.096Z,14.33
2018-05-06T02:13:50.609Z,14.29
2018-05-06T02:16:18.113Z,14.01
2018-05-06T02:18:45.600Z,13.82
2018-05-06T02:21:13.101Z,13.91
2018-05-06T02:23:40.600Z,13.72
2018-05-06T02:26:08.129Z,14.14
2018-05-06T02:28:35.609Z,14.15
2018-05-06T02:31:03.119Z,13.95
2018-05-06T02:33:30.609Z,13.58
2018-05-06T02:35:58.139Z,13.13
2018-05-06T02:38:25.621Z,12.92
2018-05-06T02:40:53.124Z,12.90
2018-05-06T02:43:20.605Z,12.81
2018-05-06T02:45:48.241Z,12.51
2018-05-06T02:48:15.745Z,12.45
2018-05-06T02:50:43.229Z,12.23
2018-05-06T02:53:10.746Z,12.16
2018-05-06T02:55:38.221Z,12.08
2018-05-06T02:58:05.789Z,12.09
2018-05-06T03:00:33.288Z,12.11
2018-05-06T03:03:00.813Z,12.21
2018-05-06T03:05:28.288Z,12.29
2018-05-06T03:07:55.789Z,12.15
2018-05-06T03:10:23.273Z,12.17
2018-05-06T03:12:50.777Z,12.21
2018-05-06T03:15:18.266Z,12.14
2018-05-06T03:17:45.778Z,12.17
2018-05-06T03:20:13.273Z,12.11
2018-05-06T03:22:40.808Z,12.13
2018-05-06T03:25:08.310Z,12.03
2018-05-06T03:27:35.825Z,12.08
2018-05-06T03:30:03.309Z,12.10
2018-05-06T03:32:30.792Z,12.22
2018-05-06T03:34:58.293Z,12.16
2018-05-06T03:37:25.769Z,11.77
2018-05-06T03:39:53.281Z,11.88
2018-05-06T03:42:20.758Z,11.88
2018-05-06T03:44:48.289Z,11.83
2018-05-06T03:47:15.784Z,11.66
2018-05-06T03:49:43.297Z,11.68
2018-05-06T03:52:10.793Z,11.56
2018-05-06T03:54:38.297Z,11.44
2018-05-06T03:57:17.668Z,12.08
2018-05-06T03:59:57.056Z,12.11
2018-05-06T04:02:39.409Z,12.76
2018-05-06T04:05:06.952Z,13.09
2018-05-06T04:07:34.480Z,13.37
2018-05-06T04:10:01.970Z,13.45
2018-05-06T04:12:29.452Z,13.83
2018-05-06T04:14:56.952Z,13.66
2018-05-06T04:17:24.432Z,13.82
2018-05-06T04:19:51.943Z,13.96
2018-05-06T04:22:19.421Z,13.98
2018-05-06T04:24:46.933Z,14.09
2018-05-06T04:27:14.419Z,13.86
2018-05-06T04:29:41.953Z,14.13
2018-05-06T04:32:09.436Z,13.96
2018-05-06T04:34:36.978Z,14.24
2018-05-06T04:37:04.468Z,14.06
2018-05-06T04:39:31.989Z,14.02
2018-05-06T04:41:59.467Z,13.94
2018-05-06T04:44:27.163Z,13.78
2018-05-06T04:46:54.645Z,14.34
2018-05-06T04:49:22.128Z,15.14
2018-05-06T04:51:49.653Z,15.89
2018-05-06T04:54:17.145Z,16.59
2018-05-06T04:56:44.656Z,16.94
2018-05-06T04:59:12.137Z,17.31
2018-05-06T05:01:39.641Z,17.75
2018-05-06T05:04:07.137Z,17.86
2018-05-06T05:06:34.661Z,18.15
2018-05-06T05:09:02.148Z,18.17
2018-05-06T05:11:29.658Z,18.55
2018-05-06T05:13:57.136Z,18.57
2018-05-06T05:16:24.640Z,18.67
2018-05-06T05:18:52.125Z,19.08
2018-05-06T05:21:19.601Z,18.90
2018-05-06T05:23:47.197Z,18.58
2018-05-06T05:26:14.718Z,18.99
2018-05-06T05:28:42.229Z,19.27
2018-05-06T05:31:09.720Z,19.67
2018-05-06T05:33:37.248Z,19.56
2018-05-06T05:36:04.737Z,19.51
2018-05-06T05:38:32.241Z,19.14
2018-05-06T05:40:59.720Z,19.66
2018-05-06T05:43:27.261Z,19.74
2018-05-06T05:45:54.761Z,19.40
2018-05-06T05:48:22.265Z,19.62
2018-05-06T05:50:49.744Z,19.47
2018-05-06T05:53:17.233Z,19.87
2018-05-06T05:55:44.765Z,19.79
2018-05-06T05:58:12.280Z,19.00
2018-05-06T06:00:39.790Z,19.51
2018-05-06T06:03:07.269Z,19.49
2018-05-06T06:05:34.779Z,20.09
2018-05-06T06:08:02.257Z,19.49
2018-05-06T06:10:29.761Z,19.59
2018-05-06T06:12:57.245Z,19.56
2018-05-06T06:15:24.774Z,19.77
2018-05-06T06:17:52.261Z,18.88
2018-05-06T06:20:19.768Z,19.17
2018-05-06T06:22:47.253Z,18.71
2018-05-06T06:25:15.038Z,19.24
2018-05-06T06:27:42.527Z,19.10
2018-05-06T06:30:10.006Z,18.97
2018-05-06T06:32:37.509Z,18.84
2018-05-06T06:35:04.993Z,18.72
2018-05-06T06:37:32.501Z,18.62
2018-05-06T06:39:59.997Z,18.29
2018-05-06T06:42:27.510Z,18.36
2018-05-06T06:44:55.025Z,18.32
2018-05-06T06:47:22.629Z,18.57
2018-05-06T06:49:50.137Z,18.83
2018-05-06T06:52:17.641Z,18.87
2018-05-06T06:54:45.125Z,18.80
2018-05-06T06:57:12.657Z,19.03
2018-05-06T06:59:40.156Z,19.15
2018-05-06T07:02:07.660Z,18.64
2018-05-06T07:04:35.144Z,18.67
2018-05-06T07:07:02.652Z,18.91
2018-05-06T07:09:30.169Z,19.11
2018-05-06T07:11:57.688Z,18.80
2018-05-06T07:14:25.189Z,18.97
2018-05-06T07:16:52.690Z,18.81
2018-05-06T07:19:20.273Z,18.83
2018-05-06T07:21:47.702Z,18.63
2018-05-06T07:24:15.201Z,18.81
2018-05-06T07:26:42.677Z,18.88
2018-05-06T07:29:10.205Z,18.87
2018-05-06T07:31:37.755Z,18.81
2018-05-06T07:34:05.213Z,18.65
2018-05-06T07:36:32.689Z,18.99
2018-05-06T07:39:00.265Z,19.02
2018-05-06T07:41:27.782Z,19.16
2018-05-06T07:43:55.533Z,18.95
2018-05-06T07:46:23.013Z,19.17
2018-05-06T07:48:50.523Z,19.16
2018-05-06T07:51:18.025Z,19.33
2018-05-06T07:53:45.513Z,19.49
2018-05-06T07:56:13.029Z,19.26
2018-05-06T07:58:40.512Z,19.43
2018-05-06T08:01:08.013Z,19.32
2018-05-06T08:03:35.493Z,19.44
2018-05-06T08:06:03.004Z,19.66
2018-05-06T08:08:30.486Z,19.46
2018-05-06T08:10:57.988Z,19.53
2018-05-06T08:13:25.477Z,19.85
2018-05-06T08:15:53.004Z,20.02
2018-05-06T08:18:20.488Z,20.07
2018-05-06T08:20:47.997Z,20.18
2018-05-06T08:23:15.504Z,20.17
2018-05-06T08:25:42.995Z,19.97
2018-05-06T08:28:10.525Z,20.46
2018-05-06T08:30:38.009Z,19.98
2018-05-06T08:33:05.513Z,20.20
2018-05-06T08:35:33.010Z,20.07
2018-05-06T08:38:00.513Z,20.20
2018-05-06T08:40:28.009Z,20.61
2018-05-06T08:42:55.526Z,20.57
2018-05-06T08:45:23.090Z,20.85
2018-05-06T08:47:50.621Z,20.74
2018-05-06T08:50:18.116Z,20.69
2018-05-06T08:52:45.643Z,20.57
2018-05-06T08:55:13.132Z,20.49
2018-05-06T08:57:40.628Z,20.41
2018-05-06T09:00:08.169Z,20.53
2018-05-06T09:02:35.685Z,20.80
2018-05-06T09:05:03.209Z,21.10
2018-05-06T09:07:30.701Z,20.61
2018-05-06T09:09:58.200Z,20.66
2018-05-06T09:12:25.686Z,21.02
2018-05-06T09:14:53.229Z,20.77
2018-05-06T09:17:20.709Z,21.31
2018-05-06T09:19:48.289Z,21.35
2018-05-06T09:22:15.749Z,21.34
2018-05-06T09:24:43.271Z,20.98
2018-05-06T09:27:10.766Z,20.82
2018-05-06T09:29:38.721Z,21.26
2018-05-06T09:32:06.205Z,21.26
2018-05-06T09:34:33.692Z,21.37
2018-05-06T09:37:02.078Z,21.44
2018-05-06T09:39:29.565Z,21.37
2018-05-06T09:41:57.733Z,21.26
2018-05-06T09:44:25.231Z,21.67
2018-05-06T09:46:52.717Z,22.12
2018-05-06T09:49:20.220Z,21.52
2018-05-06T09:51:47.736Z,21.67
2018-05-06T09:54:15.388Z,21.80
2018-05-06T09:56:42.868Z,21.92
2018-05-06T09:59:10.354Z,22.07
2018-05-06T10:01:38.001Z,21.72
2018-05-06T10:04:05.485Z,21.87
2018-05-06T10:06:32.997Z,21.69
2018-05-06T10:09:00.950Z,21.87
2018-05-06T10:11:28.433Z,21.88
2018-05-06T10:13:56.043Z,21.62
2018-05-06T10:16:23.601Z,22.26
2018-05-06T10:18:51.081Z,22.36
2018-05-06T10:21:18.617Z,22.30
2018-05-06T10:23:46.101Z,22.38
2018-05-06T10:26:13.681Z,21.98
2018-05-06T10:28:41.126Z,22.11
2018-05-06T10:31:08.601Z,21.75
2018-05-06T10:33:36.117Z,22.04
2018-05-06T10:36:03.595Z,22.48
2018-05-06T10:38:31.313Z,22.27
2018-05-06T10:40:58.814Z,22.69
2018-05-06T10:43:26.296Z,22.82
2018-05-06T10:45:53.826Z,22.27
2018-05-06T10:48:21.348Z,22.89
2018-05-06T10:50:49.057Z,22.50
2018-05-06T10:53:16.537Z,22.47
2018-05-06T10:55:44.022Z,23.18
2018-05-06T10:58:11.521Z,22.65
2018-05-06T11:00:39.040Z,22.99
2018-05-06T11:03:06.550Z,23.37
2018-05-06T11:05:34.037Z,22.95
2018-05-06T11:08:01.521Z,23.02
2018-05-06T11:10:29.181Z,23.27
2018-05-06T11:12:56.668Z,23.30
2018-05-06T11:15:24.449Z,23.22
2018-05-06T11:17:51.981Z,23.33
2018-05-06T11:20:19.465Z,23.65
2018-05-06T11:22:46.966Z,23.17
2018-05-06T11:25:14.472Z,23.16
2018-05-06T11:27:42.136Z,22.85
2018-05-06T11:30:09.625Z,23.05
2018-05-06T11:32:37.105Z,23.01
2018-05-06T11:35:04.614Z,22.87
2018-05-06T11:37:32.105Z,23.53
2018-05-06T11:39:59.762Z,23.42
2018-05-06T11:42:27.250Z,23.87
2018-05-06T11:44:54.826Z,23.72
2018-05-06T11:47:22.340Z,24.31
2018-05-06T11:49:49.816Z,23.78
2018-05-06T11:52:17.349Z,23.88
2018-05-06T11:54:44.829Z,24.06
2018-05-06T11:57:12.304Z,23.97
2018-05-06T11:59:39.813Z,23.74
2018-05-06T12:02:07.289Z,23.72
2018-05-06T12:04:35.172Z,23.63
2018-05-06T12:07:02.657Z,24.02
2018-05-06T12:09:30.136Z,24.36
2018-05-06T12:11:57.648Z,24.32
2018-05-06T12:14:25.125Z,24.09
2018-05-06T12:16:52.876Z,24.29
2018-05-06T12:19:20.353Z,23.91
2018-05-06T12:21:47.830Z,24.30
2018-05-06T12:24:15.366Z,24.16
2018-05-06T12:26:42.856Z,24.26
2018-05-06T12:29:10.593Z,24.09
2018-05-06T12:31:38.085Z,24.20
2018-05-06T12:34:05.569Z,24.21
2018-05-06T12:36:33.069Z,24.21
2018-05-06T12:39:00.552Z,24.20
2018-05-06T12:41:28.168Z,24.42
2018-05-06T12:43:55.657Z,24.16
2018-05-06T12:46:23.140Z,24.69
2018-05-06T12:48:50.648Z,24.57
2018-05-06T12:51:18.125Z,24.60
2018-05-06T12:53:45.848Z,24.86
2018-05-06T12:56:13.329Z,24.52
2018-05-06T12:58:40.844Z,24.67
2018-05-06T13:01:08.369Z,24.96
2018-05-06T13:03:35.857Z,24.95
2018-05-06T13:06:03.385Z,25.09
2018-05-06T13:08:30.860Z,25.12
2018-05-06T13:10:58.352Z,25.26
2018-05-06T13:13:25.869Z,25.23
2018-05-06T13:15:53.349Z,24.72
2018-05-06T13:18:21.305Z,25.07
2018-05-06T13:20:48.819Z,25.42
2018-05-06T13:23:16.298Z,25.31
2018-05-06T13:25:43.813Z,25.16
2018-05-06T13:28:11.293Z,25.16
2018-05-06T13:30:39.168Z,25.45
2018-05-06T13:33:06.645Z,25.16
2018-05-06T13:35:34.133Z,25.24
2018-05-06T13:38:01.641Z,25.58
2018-05-06T13:40:29.121Z,25.50
2018-05-06T13:42:56.953Z,25.36
2018-05-06T13:45:24.440Z,25.55
2018-05-06T13:47:51.941Z,25.57
2018-05-06T13:50:19.461Z,25.83
2018-05-06T13:52:46.962Z,25.45
2018-05-06T13:55:14.687Z,25.73
2018-05-06T13:57:42.184Z,25.33
2018-05-06T14:00:09.676Z,25.70
2018-05-06T14:02:37.181Z,25.69
2018-05-06T14:05:04.679Z,25.47
2018-05-06T14:07:32.341Z,25.60
2018-05-06T14:09:59.829Z,25.61
2018-05-06T14:12:27.305Z,25.93
2018-05-06T14:14:54.973Z,25.54
2018-05-06T14:17:22.449Z,25.77
2018-05-06T14:19:50.097Z,25.60
2018-05-06T14:22:17.585Z,25.94
2018-05-06T14:24:45.062Z,25.72
2018-05-06T14:27:12.758Z,25.97
2018-05-06T14:29:40.240Z,25.66
2018-05-06T14:32:07.964Z,25.80
2018-05-06T14:34:35.450Z,25.66
2018-05-06T14:37:02.951Z,25.51
2018-05-06T14:39:30.517Z,25.57
2018-05-06T14:41:58.031Z,25.48
2018-05-06T14:44:25.725Z,25.86
2018-05-06T14:47:05.017Z,25.70
2018-05-06T14:49:33.006Z,25.88
2018-05-06T14:52:00.501Z,25.53
2018-05-06T14:54:27.981Z,25.65
2018-05-06T14:56:55.512Z,25.81
2018-05-06T14:59:22.996Z,25.83
2018-05-06T15:01:50.707Z,26.07
2018-05-06T15:04:18.198Z,25.97
2018-05-06T15:06:45.701Z,25.77
2018-05-06T15:09:13.228Z,25.81
2018-05-06T15:11:40.713Z,25.69
2018-05-06T15:14:08.232Z,25.92
2018-05-06T15:16:35.717Z,25.97
2018-05-06T15:19:03.197Z,26.07
2018-05-06T15:21:30.705Z,25.98
2018-05-06T15:23:58.186Z,25.88
2018-05-06T15:26:26.116Z,25.81
2018-05-06T15:28:53.608Z,25.71
2018-05-06T15:31:21.086Z,25.77
2018-05-06T15:33:48.633Z,25.76
2018-05-06T15:36:16.118Z,25.74
2018-05-06T15:38:43.714Z,25.82
2018-05-06T15:41:11.294Z,25.79
2018-05-06T15:43:38.720Z,25.87
2018-05-06T15:46:06.249Z,25.83
2018-05-06T15:48:33.733Z,25.72
2018-05-06T15:51:01.450Z,25.77
2018-05-06T15:53:28.930Z,25.70
2018-05-06T15:55:56.416Z,25.65
2018-05-06T15:58:23.929Z,25.69
2018-05-06T16:00:51.412Z,25.65
2018-05-06T16:03:31.290Z,25.80
2018-05-06T16:05:58.773Z,25.50
2018-05-06T16:08:26.346Z,25.55
2018-05-06T16:10:53.860Z,25.61
2018-05-06T16:13:21.349Z,25.50
2018-05-06T16:15:48.873Z,25.55
2018-05-06T16:18:16.365Z,25.54
2018-05-06T16:20:43.849Z,25.61
2018-05-06T16:23:11.373Z,25.36
2018-05-06T16:25:38.857Z,25.36
2018-05-06T16:28:06.373Z,25.39
2018-05-06T16:30:33.861Z,25.45
2018-05-06T16:33:01.345Z,25.44
2018-05-06T16:35:28.880Z,25.44
2018-05-06T16:37:56.389Z,25.45
2018-05-06T16:40:23.926Z,25.47
2018-05-06T16:42:51.433Z,25.44
2018-05-06T16:45:18.917Z,25.36
2018-05-06T16:47:46.421Z,25.42
2018-05-06T16:50:13.916Z,25.35
2018-05-06T16:52:41.918Z,25.29
2018-05-06T16:55:09.426Z,25.25
2018-05-06T16:57:36.920Z,25.36
2018-05-06T17:00:04.429Z,25.15
2018-05-06T17:02:31.953Z,25.28
2018-05-06T17:04:59.470Z,25.20
2018-05-06T17:07:27.062Z,25.08
2018-05-06T17:09:54.522Z,25.12
2018-05-06T17:12:22.103Z,25.08
2018-05-06T17:14:49.624Z,25.15
2018-05-06T17:17:17.424Z,25.17
2018-05-06T17:19:45.001Z,25.31
2018-05-06T17:22:12.500Z,25.04
2018-05-06T17:24:39.978Z,24.92
2018-05-06T17:27:07.470Z,24.66
2018-05-06T17:29:35.129Z,24.68
2018-05-06T17:32:02.618Z,24.63
2018-05-06T17:34:30.127Z,24.59
2018-05-06T17:36:57.654Z,24.61
2018-05-06T17:39:25.148Z,24.55
2018-05-06T17:41:52.921Z,24.27
2018-05-06T17:44:20.457Z,24.30
2018-05-06T17:46:48.009Z,24.18
2018-05-06T17:49:15.557Z,24.05
2018-05-06T17:51:43.049Z,24.02
2018-05-06T17:54:11.256Z,23.90
2018-05-06T17:56:38.753Z,23.84
2018-05-06T17:59:06.248Z,23.78
2018-05-06T18:01:33.812Z,23.71
2018-05-06T18:04:01.302Z,23.54
2018-05-06T18:06:28.831Z,23.46
2018-05-06T18:08:56.684Z,23.34
2018-05-06T18:11:24.179Z,23.10
2018-05-06T18:13:51.721Z,23.04
2018-05-06T18:16:19.209Z,22.96
2018-05-06T18:18:47.150Z,22.92
2018-05-06T18:21:14.640Z,22.79
2018-05-06T18:23:42.185Z,22.72
2018-05-06T18:26:10.085Z,22.70
2018-05-06T18:28:37.576Z,22.46
2018-05-06T18:31:05.346Z,22.55
2018-05-06T18:33:32.869Z,22.49
2018-05-06T18:36:01.070Z,22.48
2018-05-06T18:38:28.591Z,22.32
2018-05-06T18:40:56.112Z,22.13
2018-05-06T18:43:23.899Z,21.78
2018-05-06T18:45:51.438Z,21.74
2018-05-06T18:48:18.956Z,21.60
2018-05-06T18:50:46.516Z,21.37
2018-05-06T18:53:14.042Z,21.40
2018-05-06T18:55:42.080Z,21.28
2018-05-06T18:58:09.862Z,21.03
2018-05-06T19:00:37.938Z,21.08
2018-05-06T19:03:05.486Z,21.06
2018-05-06T19:05:35.048Z,20.90
2018-05-06T19:08:03.481Z,21.10
2018-05-06T19:10:32.283Z,21.05
2018-05-06T19:13:00.207Z,20.92
2018-05-06T19:15:29.715Z,20.66
2018-05-06T19:17:59.204Z,20.61
2018-05-06T19:20:26.921Z,20.82
2018-05-06T19:22:54.713Z,20.41
2018-05-06T19:25:22.363Z,20.52
2018-05-06T19:27:50.136Z,20.50
2018-05-06T19:30:17.996Z,20.52
2018-05-06T19:32:46.085Z,20.44
2018-05-06T19:35:14.411Z,20.58
2018-05-06T19:37:43.417Z,20.64
2018-05-06T19:40:11.893Z,20.46
2018-05-06T19:42:41.319Z,20.37
2018-05-06T19:45:09.201Z,20.40
2018-05-06T19:47:37.175Z,20.21
2018-05-06T19:50:04.881Z,20.27
2018-05-06T19:52:32.833Z,20.21
2018-05-06T19:55:01.165Z,20.17
2018-05-06T19:57:28.837Z,20.10
2018-05-06T19:59:56.454Z,20.07
2018-05-06T20:02:25.274Z,19.92
2018-05-06T20:04:53.354Z,19.84
2018-05-06T20:07:21.436Z,19.88
2018-05-06T20:09:50.181Z,19.66
2018-05-06T20:12:18.328Z,19.49
2018-05-06T20:14:46.090Z,19.55
2018-05-06T20:17:13.672Z,19.60
2018-05-06T20:19:41.342Z,19.52
2018-05-06T20:22:09.183Z,19.36
2018-05-06T20:24:37.251Z,19.36
2018-05-06T20:27:04.775Z,19.23
2018-05-06T20:29:32.330Z,19.07
2018-05-06T20:32:00.105Z,19.04
2018-05-06T20:34:27.650Z,19.02
2018-05-06T20:36:55.304Z,18.98
2018-05-06T20:39:22.805Z,18.95
2018-05-06T20:41:50.856Z,18.90
2018-05-06T20:44:20.073Z,18.84
2018-05-06T20:46:47.697Z,18.88
2018-05-06T20:49:15.197Z,18.99
2018-05-06T20:51:42.687Z,19.16
2018-05-06T20:54:10.212Z,19.01
2018-05-06T20:56:37.708Z,19.13
2018-05-06T20:59:05.334Z,19.12
2018-05-06T21:01:32.824Z,19.09
2018-05-06T21:04:00.424Z,18.99
2018-05-06T21:06:27.861Z,18.80
2018-05-06T21:08:55.349Z,18.71
2018-05-06T21:11:23.099Z,18.69
2018-05-06T21:13:50.597Z,18.65
2018-05-06T21:16:18.141Z,18.55
2018-05-06T21:18:45.631Z,18.66
2018-05-06T21:21:13.126Z,18.47
2018-05-06T21:23:41.081Z,18.56
2018-05-06T21:26:08.565Z,18.45
2018-05-06T21:28:36.058Z,18.49
2018-05-06T21:31:03.793Z,18.43
2018-05-06T21:33:31.413Z,18.39
2018-05-06T21:35:59.161Z,18.29
2018-05-06T21:38:26.761Z,18.38
2018-05-06T21:40:54.249Z,18.27
2018-05-06T21:43:21.893Z,18.22
2018-05-06T21:45:49.279Z,18.21
2018-05-06T21:48:16.833Z,18.17
2018-05-06T21:50:44.333Z,18.19
2018-05-06T21:53:11.841Z,18.26
2018-05-06T21:55:39.345Z,18.16
2018-05-06T21:58:06.841Z,18.13
2018-05-06T22:00:34.524Z,18.04
2018-05-06T22:03:02.009Z,18.11
2018-05-06T22:05:29.497Z,18.08
2018-05-06T22:07:57.017Z,18.17
2018-05-06T22:10:24.500Z,18.12
2018-05-06T22:12:52.381Z,18.09
2018-05-06T22:15:19.869Z,18.02
2018-05-06T22:17:47.365Z,18.06
2018-05-06T22:20:14.869Z,18.11
2018-05-06T22:22:42.349Z,18.11
2018-05-06T22:25:10.033Z,18.08
2018-05-06T22:27:37.513Z,18.00
2018-05-06T22:30:05.129Z,17.98
2018-05-06T22:32:32.641Z,17.90
2018-05-06T22:35:00.121Z,17.86
2018-05-06T22:37:27.651Z,17.87
2018-05-06T22:39:55.148Z,17.93
2018-05-06T22:42:22.629Z,17.88
2018-05-06T22:44:50.136Z,17.87
2018-05-06T22:47:17.613Z,17.85
2018-05-06T22:49:45.356Z,17.78
2018-05-06T22:52:12.844Z,17.75
2018-05-06T22:54:40.321Z,17.79
2018-05-06T22:57:07.824Z,17.76
2018-05-06T22:59:35.339Z,17.84
2018-05-06T23:02:03.113Z,17.78
2018-05-06T23:04:30.608Z,17.81
2018-05-06T23:06:58.097Z,17.78
2018-05-06T23:09:25.604Z,17.80
2018-05-06T23:11:53.092Z,17.85
2018-05-06T23:14:20.779Z,17.82
2018-05-06T23:16:48.269Z,17.71
2018-05-06T23:19:15.750Z,17.75
2018-05-06T23:21:43.306Z,17.71
2018-05-06T23:24:10.761Z,17.63
2018-05-06T23:26:38.288Z,17.63
2018-05-06T23:29:05.817Z,17.56
2018-05-06T23:31:33.312Z,17.50
2018-05-06T23:34:00.813Z,17.49
2018-05-06T23:36:28.293Z,17.54
2018-05-06T23:38:55.818Z,17.44
2018-05-06T23:41:23.359Z,17.42
2018-05-06T23:43:50.927Z,17.40
2018-05-06T23:46:18.377Z,17.46
2018-05-06T23:48:45.873Z,17.37
2018-05-06T23:51:13.739Z,17.30
2018-05-06T23:53:41.225Z,17.21
2018-05-06T23:56:08.720Z,17.26
2018-05-06T23:58:36.222Z,17.26
